createdAt,value
2023-04-07T00:00:32.531Z,49.8740
2023-04-07T00:01:33.066Z,49.6181
2023-04-07T00:02:33.561Z,50.3681
2023-04-07T00:03:34.061Z,50.7005
2023-04-07T00:04:34.633Z,50.9462
2023-04-07T00:05:35.138Z,51.2886
2023-04-07T00:06:35.532Z,51.4656
2023-04-07T00:07:44.974Z,51.5350
2023-04-07T00:08:37.386Z,51.6784
2023-04-07T00:09:37.828Z,51.7806
2023-04-07T00:10:38.321Z,51.6409
2023-04-07T00:11:38.735Z,51.4008
2023-04-07T00:12:39.153Z,51.6086
2023-04-07T00:13:39.587Z,51.5178
2023-04-07T00:14:39.997Z,51.4696
2023-04-07T00:15:40.427Z,51.4523
2023-04-07T00:16:40.884Z,51.1451
2023-04-07T00:17:41.376Z,50.9303
2023-04-07T00:18:41.839Z,51.7485
2023-04-07T00:19:42.265Z,52.0617
2023-04-07T00:20:42.672Z,51.6822
2023-04-07T00:21:43.112Z,51.6882
2023-04-07T00:22:43.725Z,51.3230
2023-04-07T00:23:44.200Z,50.2604
2023-04-07T00:24:44.621Z,50.8482
2023-04-07T00:25:45.053Z,51.3208
2023-04-07T00:26:45.458Z,51.3395
2023-04-07T00:27:45.924Z,50.8467
2023-04-07T00:28:46.339Z,51.0012
2023-04-07T00:29:46.739Z,51.0080
2023-04-07T00:30:47.203Z,51.5469
2023-04-07T00:31:47.599Z,52.1509
2023-04-07T00:32:48.062Z,52.1099
2023-04-07T00:33:48.575Z,52.5183
2023-04-07T00:34:49.010Z,54.2321
2023-04-07T00:35:49.523Z,55.7186
2023-04-07T00:36:49.953Z,56.3102
2023-04-07T00:37:50.388Z,56.4469
2023-04-07T00:38:50.904Z,56.1492
2023-04-07T00:39:51.385Z,55.7910
2023-04-07T00:40:51.836Z,55.2125
2023-04-07T00:41:52.218Z,54.7695
2023-04-07T00:42:52.713Z,54.6373
2023-04-07T00:43:53.487Z,52.5951
2023-04-07T00:44:54.345Z,52.6869
2023-04-07T00:45:54.803Z,52.7090
2023-04-07T00:46:55.217Z,52.5994
2023-04-07T00:47:55.677Z,52.3795
2023-04-07T00:48:56.077Z,52.3212
2023-04-07T00:49:56.522Z,52.1388
2023-04-07T00:50:57.001Z,52.4261
2023-04-07T00:51:57.393Z,52.6649
2023-04-07T00:52:57.892Z,52.9285
2023-04-07T00:53:58.378Z,54.1726
2023-04-07T00:54:58.865Z,54.2810
2023-04-07T00:55:59.321Z,53.7510
2023-04-07T00:56:59.788Z,53.4279
2023-04-07T00:58:00.257Z,53.7513
2023-04-07T00:59:00.724Z,54.3196
2023-04-07T01:00:01.219Z,54.9135
2023-04-07T01:01:01.685Z,54.9964
2023-04-07T01:02:02.176Z,54.9628
2023-04-07T01:03:02.918Z,55.0804
2023-04-07T01:04:03.791Z,55.1456
2023-04-07T01:05:04.309Z,55.1407
2023-04-07T01:06:04.779Z,55.0886
2023-04-07T01:07:05.260Z,54.7786
2023-04-07T01:08:05.640Z,54.3526
2023-04-07T01:09:06.144Z,53.8209
2023-04-07T01:10:06.589Z,53.9094
2023-04-07T01:11:07.061Z,54.0180
2023-04-07T01:12:07.488Z,54.0811
2023-04-07T01:13:07.900Z,53.7860
2023-04-07T01:14:08.388Z,53.7154
2023-04-07T01:15:08.845Z,53.3182
2023-04-07T01:16:09.303Z,53.5107
2023-04-07T01:17:09.703Z,53.5066
2023-04-07T01:18:10.169Z,53.5969
2023-04-07T01:19:10.614Z,53.4766
2023-04-07T01:20:11.090Z,53.4909
2023-04-07T01:21:11.516Z,52.6160
2023-04-07T01:22:12.020Z,52.7773
2023-04-07T01:23:12.418Z,52.9180
2023-04-07T01:24:12.858Z,53.3523
2023-04-07T01:25:13.378Z,53.4816
2023-04-07T01:26:13.842Z,52.9177
2023-04-07T01:27:14.270Z,52.4790
2023-04-07T01:28:14.720Z,51.9827
2023-04-07T01:29:15.385Z,52.1143
2023-04-07T01:30:15.786Z,52.0907
2023-04-07T01:31:16.268Z,52.3068
2023-04-07T01:32:16.600Z,52.4112
2023-04-07T01:33:17.154Z,52.7323
2023-04-07T01:34:17.621Z,52.9101
2023-04-07T01:35:18.058Z,52.4698
2023-04-07T01:36:18.449Z,52.8101
2023-04-07T01:37:18.941Z,52.8260
2023-04-07T01:38:19.396Z,52.7574
2023-04-07T01:39:19.827Z,52.8033
2023-04-07T01:40:20.226Z,52.6476
2023-04-07T01:41:20.695Z,52.5892
2023-04-07T01:42:21.330Z,53.1551
2023-04-07T01:43:21.781Z,53.5206
2023-04-07T01:44:22.268Z,53.3302
2023-04-07T01:45:22.728Z,52.8645
2023-04-07T01:46:23.112Z,52.9584
2023-04-07T01:47:23.744Z,52.7769
2023-04-07T01:48:24.319Z,53.1953
2023-04-07T01:49:24.773Z,53.0667
2023-04-07T01:50:25.223Z,52.6390
2023-04-07T01:51:25.660Z,52.5596
2023-04-07T01:52:26.115Z,52.7494
2023-04-07T01:53:26.625Z,52.8693
2023-04-07T01:54:27.045Z,53.0698
2023-04-07T01:55:27.472Z,53.3597
2023-04-07T01:56:27.934Z,53.3288
2023-04-07T01:57:28.424Z,53.1285
2023-04-07T01:58:28.902Z,53.3652
2023-04-07T01:59:29.523Z,53.4161
2023-04-07T02:00:30.013Z,53.4281
2023-04-07T02:01:30.531Z,53.5063
2023-04-07T02:02:31.142Z,53.4918
2023-04-07T02:03:31.784Z,53.6870
2023-04-07T02:04:32.287Z,53.9673
2023-04-07T02:05:32.789Z,54.3544
2023-04-07T02:06:33.260Z,54.1936
2023-04-07T02:07:33.734Z,54.1749
2023-04-07T02:08:34.261Z,54.2700
2023-04-07T02:09:34.735Z,54.4879
2023-04-07T02:10:35.347Z,54.5459
2023-04-07T02:11:35.765Z,54.5856
2023-04-07T02:12:36.358Z,55.0854
2023-04-07T02:13:36.945Z,56.4899
2023-04-07T02:14:37.427Z,58.3936
2023-04-07T02:15:38.135Z,59.1400
2023-04-07T02:16:38.676Z,58.5510
2023-04-07T02:17:39.254Z,57.4081
2023-04-07T02:18:39.772Z,58.1916
2023-04-07T02:19:40.274Z,58.0940
2023-04-07T02:20:40.752Z,57.8990
2023-04-07T02:21:41.224Z,58.7902
2023-04-07T02:22:41.738Z,58.4752
2023-04-07T02:23:42.190Z,58.3490
2023-04-07T02:24:42.693Z,58.4675
2023-04-07T02:25:43.321Z,59.5340
2023-04-07T02:26:43.766Z,59.9531
2023-04-07T02:27:44.243Z,59.8431
2023-04-07T02:28:44.732Z,58.6584
2023-04-07T02:29:45.395Z,58.3948
2023-04-07T02:30:45.898Z,58.5320
2023-04-07T02:31:46.484Z,59.3709
2023-04-07T02:32:46.980Z,58.7116
2023-04-07T02:33:47.549Z,58.6653
2023-04-07T02:34:48.074Z,58.0371
2023-04-07T02:35:48.589Z,59.1550
2023-04-07T02:36:49.185Z,58.3579
2023-04-07T02:37:49.715Z,57.5353
2023-04-07T02:38:50.176Z,57.6754
2023-04-07T02:39:50.724Z,57.6270
2023-04-07T02:40:51.242Z,57.8173
2023-04-07T02:41:51.892Z,57.3708
2023-04-07T02:42:52.353Z,57.2754
2023-04-07T02:43:53.058Z,57.0572
2023-04-07T02:44:53.860Z,57.2091
2023-04-07T02:45:54.398Z,57.3207
2023-04-07T02:46:54.961Z,56.9140
2023-04-07T02:47:55.521Z,56.8673
2023-04-07T02:48:55.976Z,56.2886
2023-04-07T02:49:56.434Z,55.9182
2023-04-07T02:50:56.962Z,56.0608
2023-04-07T02:51:57.454Z,55.6787
2023-04-07T02:52:57.896Z,55.5606
2023-04-07T02:53:58.466Z,55.6994
2023-04-07T02:54:58.944Z,55.2676
2023-04-07T02:55:59.435Z,55.3254
2023-04-07T02:57:00.012Z,55.6724
2023-04-07T02:58:00.570Z,55.6819
2023-04-07T02:59:01.022Z,55.6366
2023-04-07T03:00:01.569Z,55.7462
2023-04-07T03:01:02.059Z,55.6067
2023-04-07T03:02:02.794Z,56.2299
2023-04-07T03:03:03.799Z,55.9613
2023-04-07T03:04:04.437Z,55.9995
2023-04-07T03:05:04.985Z,55.9274
2023-04-07T03:06:05.457Z,55.6608
2023-04-07T03:07:06.026Z,55.6011
2023-04-07T03:08:06.486Z,56.0539
2023-04-07T03:09:07.013Z,55.9753
2023-04-07T03:10:07.574Z,56.3685
2023-04-07T03:11:08.089Z,56.4333
2023-04-07T03:12:08.665Z,56.6952
2023-04-07T03:13:09.125Z,56.9989
2023-04-07T03:14:09.605Z,57.0425
2023-04-07T03:15:10.146Z,57.0844
2023-04-07T03:16:10.672Z,57.0644
2023-04-07T03:17:11.242Z,56.9497
2023-04-07T03:18:11.875Z,57.1548
2023-04-07T03:19:12.306Z,57.1771
2023-04-07T03:20:12.825Z,57.4393
2023-04-07T03:21:13.308Z,57.5072
2023-04-07T03:22:13.789Z,57.2666
2023-04-07T03:23:14.289Z,57.0165
2023-04-07T03:24:14.749Z,57.1562
2023-04-07T03:25:15.369Z,56.8455
2023-04-07T03:26:15.854Z,57.1010
2023-04-07T03:27:16.371Z,57.1897
2023-04-07T03:28:16.831Z,57.4939
2023-04-07T03:29:18.224Z,57.6262
2023-04-07T03:30:18.772Z,57.9472
2023-04-07T03:31:19.331Z,57.9101
2023-04-07T03:32:19.955Z,57.8925
2023-04-07T03:33:20.508Z,58.1631
2023-04-07T03:34:20.996Z,58.4209
2023-04-07T03:35:21.576Z,58.2890
2023-04-07T03:36:22.206Z,58.2516
2023-04-07T03:37:22.737Z,58.5070
2023-04-07T03:38:23.235Z,58.6303
2023-04-07T03:39:23.765Z,58.7758
2023-04-07T03:40:24.272Z,58.8068
2023-04-07T03:41:24.769Z,58.9756
2023-04-07T03:42:25.250Z,59.1026
2023-04-07T03:43:25.770Z,59.2099
2023-04-07T03:44:26.275Z,59.2832
2023-04-07T03:45:26.757Z,59.4577
2023-04-07T03:46:27.474Z,59.7044
2023-04-07T03:47:28.023Z,59.9370
2023-04-07T03:48:29.247Z,59.6111
2023-04-07T03:49:29.985Z,59.5654
2023-04-07T03:50:30.621Z,59.5399
2023-04-07T03:51:31.134Z,59.3474
2023-04-07T03:52:31.609Z,59.2942
2023-04-07T03:53:32.151Z,59.2807
2023-04-07T03:54:32.565Z,59.3444
2023-04-07T03:55:33.085Z,59.2403
2023-04-07T03:56:33.616Z,59.3530
2023-04-07T03:57:34.141Z,59.5645
2023-04-07T03:58:34.625Z,60.0771
2023-04-07T03:59:35.167Z,60.4241
2023-04-07T04:00:35.644Z,59.9702
2023-04-07T04:01:36.202Z,60.1363
2023-04-07T04:02:36.793Z,61.9828
2023-04-07T04:03:37.478Z,63.8330
2023-04-07T04:04:38.187Z,64.5683
2023-04-07T04:05:38.852Z,64.5689
2023-04-07T04:06:39.356Z,64.3305
2023-04-07T04:07:39.826Z,63.5965
2023-04-07T04:08:40.304Z,62.9068
2023-04-07T04:09:40.800Z,62.7274
2023-04-07T04:10:41.296Z,62.2877
2023-04-07T04:11:41.893Z,61.3343
2023-04-07T04:12:42.404Z,60.7029
2023-04-07T04:13:42.920Z,60.7201
2023-04-07T04:14:43.405Z,60.6741
2023-04-07T04:15:43.963Z,60.9824
2023-04-07T04:16:44.427Z,61.7195
2023-04-07T04:17:44.953Z,62.4121
2023-04-07T04:18:45.448Z,62.6719
2023-04-07T04:19:45.944Z,62.5751
2023-04-07T04:20:46.492Z,62.4620
2023-04-07T04:21:46.925Z,61.7238
2023-04-07T04:22:47.401Z,61.5623
2023-04-07T04:23:48.138Z,61.1809
2023-04-07T04:24:48.635Z,60.8572
2023-04-07T04:25:49.177Z,60.4805
2023-04-07T04:26:49.662Z,60.0682
2023-04-07T04:27:50.226Z,59.4661
2023-04-07T04:28:50.712Z,58.5370
2023-04-07T04:29:51.247Z,58.4838
2023-04-07T04:30:51.912Z,58.1619
2023-04-07T04:31:52.408Z,57.3907
2023-04-07T04:32:52.994Z,57.4430
2023-04-07T04:33:53.908Z,57.4456
2023-04-07T04:34:54.720Z,57.3829
2023-04-07T04:35:55.255Z,57.2851
2023-04-07T04:36:55.824Z,58.2484
2023-04-07T04:37:56.339Z,58.8104
2023-04-07T04:38:56.817Z,59.2442
2023-04-07T04:39:57.314Z,59.5698
2023-04-07T04:40:57.822Z,60.0798
2023-04-07T04:41:58.386Z,60.7457
2023-04-07T04:42:58.858Z,60.6020
2023-04-07T04:43:59.354Z,60.6315
2023-04-07T04:44:59.923Z,60.6872
2023-04-07T04:46:00.426Z,60.8337
2023-04-07T04:47:00.922Z,61.1277
2023-04-07T04:48:01.527Z,61.3121
2023-04-07T04:49:02.022Z,61.5082
2023-04-07T04:50:02.511Z,61.6280
2023-04-07T04:51:03.046Z,61.4921
2023-04-07T04:52:03.517Z,61.6422
2023-04-07T04:53:04.022Z,61.9947
2023-04-07T04:54:04.536Z,61.9362
2023-04-07T04:55:05.026Z,61.9831
2023-04-07T04:56:05.599Z,62.2520
2023-04-07T04:57:06.092Z,62.5458
2023-04-07T04:58:06.609Z,63.3969
2023-04-07T04:59:07.087Z,64.0769
2023-04-07T05:00:07.707Z,64.4028
2023-04-07T05:01:08.465Z,64.9460
2023-04-07T05:02:09.042Z,65.3295
2023-04-07T05:03:09.898Z,65.6812
2023-04-07T05:04:11.002Z,65.7614
2023-04-07T05:05:12.039Z,65.8663
2023-04-07T05:06:12.593Z,65.8366
2023-04-07T05:07:13.145Z,65.7270
2023-04-07T05:08:13.604Z,65.8721
2023-04-07T05:09:14.064Z,66.0423
2023-04-07T05:10:14.593Z,66.2085
2023-04-07T05:11:15.103Z,66.3373
2023-04-07T05:12:15.588Z,66.4924
2023-04-07T05:13:16.077Z,66.5663
2023-04-07T05:14:16.617Z,66.7804
2023-04-07T05:15:17.112Z,66.9893
2023-04-07T05:16:17.694Z,67.3942
2023-04-07T05:17:18.380Z,67.1965
2023-04-07T05:18:18.906Z,66.8667
2023-04-07T05:19:19.398Z,66.5180
2023-04-07T05:20:19.946Z,66.3941
2023-04-07T05:21:20.473Z,66.5618
2023-04-07T05:22:20.985Z,66.6697
2023-04-07T05:23:21.541Z,66.3605
2023-04-07T05:24:22.048Z,66.1802
2023-04-07T05:25:22.500Z,66.4246
2023-04-07T05:26:22.980Z,66.6068
2023-04-07T05:27:23.471Z,67.0176
2023-04-07T05:28:24.027Z,67.4584
2023-04-07T05:29:24.556Z,67.2233
2023-04-07T05:30:25.127Z,67.1304
2023-04-07T05:31:25.841Z,66.7496
2023-04-07T05:32:26.362Z,66.5277
2023-04-07T05:33:26.945Z,66.7650
2023-04-07T05:34:27.487Z,66.6941
2023-04-07T05:35:28.028Z,66.7045
2023-04-07T05:36:28.606Z,66.9249
2023-04-07T05:37:29.080Z,67.0745
2023-04-07T05:38:29.659Z,66.8101
2023-04-07T05:39:30.172Z,66.1852
2023-04-07T05:40:30.675Z,66.0233
2023-04-07T05:41:31.173Z,65.7100
2023-04-07T05:42:31.686Z,65.5952
2023-04-07T05:43:32.196Z,65.0832
2023-04-07T05:44:32.678Z,64.7721
2023-04-07T05:45:33.223Z,64.8908
2023-04-07T05:46:33.701Z,65.0237
2023-04-07T05:47:34.229Z,64.9149
2023-04-07T05:48:34.771Z,64.9116
2023-04-07T05:49:35.273Z,64.3757
2023-04-07T05:50:35.859Z,64.1272
2023-04-07T05:51:36.428Z,64.1677
2023-04-07T05:52:36.993Z,64.1299
2023-04-07T05:53:37.532Z,63.9341
2023-04-07T05:54:38.084Z,63.6808
2023-04-07T05:55:38.627Z,63.9133
2023-04-07T05:56:39.134Z,64.5354
2023-04-07T05:57:39.652Z,64.5008
2023-04-07T05:58:40.155Z,64.8273
2023-04-07T05:59:40.655Z,64.5564
2023-04-07T06:00:41.139Z,65.0318
2023-04-07T06:01:41.654Z,65.6176
2023-04-07T06:02:42.255Z,65.2277
2023-04-07T06:03:42.924Z,65.2883
2023-04-07T06:04:43.448Z,65.9003
2023-04-07T06:05:44.041Z,65.8460
2023-04-07T06:06:44.601Z,65.5974
2023-04-07T06:07:45.123Z,65.5880
2023-04-07T06:08:45.706Z,65.5627
2023-04-07T06:09:46.255Z,65.8178
2023-04-07T06:10:46.821Z,66.6060
2023-04-07T06:11:47.385Z,67.0806
2023-04-07T06:12:47.875Z,67.2731
2023-04-07T06:13:48.505Z,67.2549
2023-04-07T06:14:49.209Z,66.8662
2023-04-07T06:15:49.753Z,66.2804
2023-04-07T06:16:50.312Z,66.0993
2023-04-07T06:17:50.857Z,66.1643
2023-04-07T06:18:51.382Z,64.9886
2023-04-07T06:19:51.892Z,64.8129
2023-04-07T06:20:52.352Z,64.6316
2023-04-07T06:21:52.831Z,64.6672
2023-04-07T06:22:53.293Z,64.5731
2023-04-07T06:23:53.749Z,64.4176
2023-04-07T06:24:54.260Z,64.1168
2023-04-07T06:25:54.941Z,63.6693
2023-04-07T06:26:55.483Z,63.4370
2023-04-07T06:27:56.034Z,63.7099
2023-04-07T06:28:56.563Z,64.1552
2023-04-07T06:29:57.015Z,64.4636
2023-04-07T06:30:58.333Z,64.8678
2023-04-07T06:31:57.597Z,64.3186
2023-04-07T06:32:58.202Z,64.1691
2023-04-07T06:33:58.716Z,63.5785
2023-04-07T06:34:59.240Z,62.8879
2023-04-07T06:35:59.755Z,62.3447
2023-04-07T06:37:00.283Z,62.4000
2023-04-07T06:38:00.762Z,61.9095
2023-04-07T06:39:01.366Z,61.8369
2023-04-07T06:40:01.903Z,61.7133
2023-04-07T06:41:02.408Z,61.4837
2023-04-07T06:42:02.995Z,61.3745
2023-04-07T06:43:03.545Z,61.0511
2023-04-07T06:44:04.078Z,60.3647
2023-04-07T06:45:04.622Z,60.4543
2023-04-07T06:46:05.180Z,60.6631
2023-04-07T06:47:05.718Z,60.7291
2023-04-07T06:48:06.299Z,60.7379
2023-04-07T06:49:06.863Z,60.7573
2023-04-07T06:50:07.409Z,60.8536
2023-04-07T06:51:08.016Z,60.7958
2023-04-07T06:52:08.612Z,61.0236
2023-04-07T06:53:09.212Z,61.1390
2023-04-07T06:54:09.764Z,60.7179
2023-04-07T06:55:10.293Z,60.1370
2023-04-07T06:56:10.919Z,59.8290
2023-04-07T06:57:11.526Z,59.9888
2023-04-07T06:58:12.112Z,58.1938
2023-04-07T06:59:12.628Z,59.2517
2023-04-07T07:00:13.194Z,59.1648
2023-04-07T07:01:13.777Z,59.0365
2023-04-07T07:02:14.615Z,58.6131
2023-04-07T07:03:15.759Z,58.1560
2023-04-07T07:04:16.450Z,58.2031
2023-04-07T07:05:17.053Z,58.3140
2023-04-07T07:06:17.558Z,58.3722
2023-04-07T07:07:18.149Z,58.2520
2023-04-07T07:08:18.692Z,58.0908
2023-04-07T07:09:19.211Z,57.6878
2023-04-07T07:10:19.722Z,59.2402
2023-04-07T07:11:20.336Z,63.7662
2023-04-07T07:12:20.974Z,63.1585
2023-04-07T07:13:21.537Z,64.6853
2023-04-07T07:14:22.130Z,64.3554
2023-04-07T07:15:22.715Z,63.6746
2023-04-07T07:16:23.242Z,64.0096
2023-04-07T07:17:23.888Z,64.0923
2023-04-07T07:18:24.577Z,64.1558
2023-04-07T07:19:25.234Z,63.9783
2023-04-07T07:20:26.031Z,64.1201
2023-04-07T07:21:26.857Z,63.8492
2023-04-07T07:22:27.394Z,63.5065
2023-04-07T07:23:27.990Z,63.9630
2023-04-07T07:24:28.778Z,64.4834
2023-04-07T07:25:29.289Z,64.6742
2023-04-07T07:26:29.850Z,65.1363
2023-04-07T07:27:30.381Z,65.2123
2023-04-07T07:28:31.040Z,65.0136
2023-04-07T07:29:31.545Z,65.2024
2023-04-07T07:30:32.139Z,65.1824
2023-04-07T07:31:32.771Z,64.9749
2023-04-07T07:32:33.647Z,65.0937
2023-04-07T07:33:34.136Z,65.1090
2023-04-07T07:34:34.734Z,64.8186
2023-04-07T07:35:35.294Z,64.5768
2023-04-07T07:36:35.814Z,64.5609
2023-04-07T07:37:36.388Z,64.1249
2023-04-07T07:38:37.702Z,63.9598
2023-04-07T07:39:38.337Z,64.3778
2023-04-07T07:40:38.848Z,64.6432
2023-04-07T07:41:39.382Z,64.7547
2023-04-07T07:42:39.916Z,64.6604
2023-04-07T07:43:40.457Z,64.7288
2023-04-07T07:44:41.200Z,64.4110
2023-04-07T07:45:41.726Z,63.7711
2023-04-07T07:46:42.298Z,63.3147
2023-04-07T07:47:43.798Z,63.5988
2023-04-07T07:48:44.252Z,63.3148
2023-04-07T07:49:44.819Z,62.9160
2023-04-07T07:50:45.305Z,62.5859
2023-04-07T07:51:45.831Z,62.5558
2023-04-07T07:52:46.460Z,62.4385
2023-04-07T07:53:47.465Z,62.4765
2023-04-07T07:54:48.363Z,62.6412
2023-04-07T07:55:48.868Z,62.9943
2023-04-07T07:56:49.439Z,62.8239
2023-04-07T07:57:49.922Z,63.0203
2023-04-07T07:58:50.481Z,62.8809
2023-04-07T07:59:51.066Z,62.6672
2023-04-07T08:00:51.682Z,62.4952
2023-04-07T08:01:52.187Z,62.3451
2023-04-07T08:02:52.882Z,62.7551
2023-04-07T08:03:53.739Z,63.1512
2023-04-07T08:04:54.765Z,63.3729
2023-04-07T08:05:55.370Z,63.3145
2023-04-07T08:06:55.938Z,63.2474
2023-04-07T08:07:56.478Z,63.5091
2023-04-07T08:08:57.184Z,63.4445
2023-04-07T08:09:57.815Z,63.2733
2023-04-07T08:10:58.353Z,63.0178
2023-04-07T08:11:59.254Z,62.6909
2023-04-07T08:12:59.935Z,62.7600
2023-04-07T08:14:00.534Z,63.4522
2023-04-07T08:15:01.023Z,65.0928
2023-04-07T08:16:01.651Z,65.3438
2023-04-07T08:17:02.274Z,65.5124
2023-04-07T08:18:02.924Z,64.7658
2023-04-07T08:19:03.543Z,64.5993
2023-04-07T08:20:04.049Z,64.2828
2023-04-07T08:21:04.653Z,63.9644
2023-04-07T08:22:05.332Z,64.1049
2023-04-07T08:23:05.929Z,64.0508
2023-04-07T08:24:06.473Z,63.9472
2023-04-07T08:25:07.091Z,64.2112
2023-04-07T08:26:07.635Z,64.3440
2023-04-07T08:27:08.368Z,64.5340
2023-04-07T08:28:08.929Z,64.2304
2023-04-07T08:29:09.495Z,64.5480
2023-04-07T08:30:10.095Z,63.9642
2023-04-07T08:31:10.673Z,63.9657
2023-04-07T08:32:11.239Z,63.9371
2023-04-07T08:33:11.841Z,63.1347
2023-04-07T08:34:12.368Z,62.6881
2023-04-07T08:35:12.885Z,62.9320
2023-04-07T08:36:13.554Z,63.9541
2023-04-07T08:37:14.070Z,63.8920
2023-04-07T08:38:14.565Z,64.4786
2023-04-07T08:39:15.166Z,64.8664
2023-04-07T08:40:15.723Z,65.0780
2023-04-07T08:41:16.245Z,65.0432
2023-04-07T08:42:16.765Z,64.3116
2023-04-07T08:43:17.278Z,64.2233
2023-04-07T08:44:17.852Z,64.9856
2023-04-07T08:45:18.393Z,66.2929
2023-04-07T08:46:19.006Z,66.5538
2023-04-07T08:47:19.591Z,66.9404
2023-04-07T08:48:20.113Z,66.6358
2023-04-07T08:49:20.656Z,66.8666
2023-04-07T08:50:21.204Z,67.4234
2023-04-07T08:51:21.793Z,68.5978
2023-04-07T08:52:22.357Z,68.5323
2023-04-07T08:53:22.966Z,68.0715
2023-04-07T08:54:23.621Z,69.0334
2023-04-07T08:55:24.183Z,68.9652
2023-04-07T08:56:24.684Z,68.9177
2023-04-07T08:57:25.230Z,69.1780
2023-04-07T08:58:25.818Z,69.7134
2023-04-07T08:59:26.353Z,69.9097
2023-04-07T09:00:26.860Z,69.2912
2023-04-07T09:01:27.436Z,69.7720
2023-04-07T09:02:28.216Z,70.2749
2023-04-07T09:03:28.902Z,70.0141
2023-04-07T09:04:29.557Z,69.9650
2023-04-07T09:05:30.089Z,69.7739
2023-04-07T09:06:30.604Z,69.4348
2023-04-07T09:07:31.222Z,69.2244
2023-04-07T09:08:31.845Z,68.8521
2023-04-07T09:09:32.426Z,69.0565
2023-04-07T09:10:33.160Z,69.5279
2023-04-07T09:11:33.718Z,69.4708
2023-04-07T09:12:34.219Z,68.9941
2023-04-07T09:13:34.770Z,68.6078
2023-04-07T09:14:35.293Z,67.5221
2023-04-07T09:15:38.024Z,67.8713
2023-04-07T09:16:36.951Z,68.6904
2023-04-07T09:17:37.596Z,68.5951
2023-04-07T09:18:38.166Z,68.5186
2023-04-07T09:19:38.732Z,68.5741
2023-04-07T09:20:39.309Z,68.7715
2023-04-07T09:21:39.829Z,68.7626
2023-04-07T09:22:40.365Z,68.6118
2023-04-07T09:23:40.885Z,68.7452
2023-04-07T09:24:41.439Z,68.6912
2023-04-07T09:25:41.994Z,68.7261
2023-04-07T09:26:42.539Z,68.5627
2023-04-07T09:27:42.987Z,68.4765
2023-04-07T09:28:43.583Z,67.8136
2023-04-07T09:29:44.105Z,67.8034
2023-04-07T09:30:44.632Z,68.0798
2023-04-07T09:31:45.258Z,69.0864
2023-04-07T09:32:45.796Z,69.6291
2023-04-07T09:33:46.713Z,68.7213
2023-04-07T09:34:47.497Z,68.2420
2023-04-07T09:35:48.036Z,68.0951
2023-04-07T09:36:48.604Z,68.8261
2023-04-07T09:37:49.106Z,69.0901
2023-04-07T09:38:49.688Z,69.5501
2023-04-07T09:39:50.308Z,69.4078
2023-04-07T09:40:50.845Z,69.6561
2023-04-07T09:41:51.589Z,69.6500
2023-04-07T09:42:52.174Z,68.7510
2023-04-07T09:43:52.807Z,68.2470
2023-04-07T09:44:53.367Z,69.3532
2023-04-07T09:45:54.045Z,69.1101
2023-04-07T09:46:54.685Z,68.6077
2023-04-07T09:47:55.267Z,68.1841
2023-04-07T09:48:55.846Z,68.6507
2023-04-07T09:49:56.396Z,69.4079
2023-04-07T09:50:57.122Z,69.1594
2023-04-07T09:51:57.716Z,69.4160
2023-04-07T09:52:58.268Z,69.6966
2023-04-07T09:53:58.921Z,69.4951
2023-04-07T09:54:59.450Z,69.1811
2023-04-07T09:56:00.085Z,69.0591
2023-04-07T09:57:00.648Z,69.7133
2023-04-07T09:58:01.189Z,69.9237
2023-04-07T09:59:01.770Z,69.4600
2023-04-07T10:00:02.342Z,69.8145
2023-04-07T10:01:02.930Z,70.3706
2023-04-07T10:02:03.615Z,70.4800
2023-04-07T10:03:04.730Z,70.5631
2023-04-07T10:04:05.349Z,70.7589
2023-04-07T10:05:05.887Z,70.8199
2023-04-07T10:06:06.454Z,70.5158
2023-04-07T10:07:06.944Z,70.2703
2023-04-07T10:08:07.500Z,70.2791
2023-04-07T10:09:08.100Z,70.5696
2023-04-07T10:10:08.712Z,70.5525
2023-04-07T10:11:09.246Z,69.9675
2023-04-07T10:12:09.771Z,70.1047
2023-04-07T10:13:10.360Z,69.9734
2023-04-07T10:14:11.040Z,69.9666
2023-04-07T10:15:11.652Z,70.0255
2023-04-07T10:16:12.233Z,70.2270
2023-04-07T10:17:12.755Z,70.5947
2023-04-07T10:18:13.303Z,70.2795
2023-04-07T10:19:13.937Z,70.5207
2023-04-07T10:20:14.446Z,70.5685
2023-04-07T10:21:14.945Z,70.4717
2023-04-07T10:22:15.506Z,70.3861
2023-04-07T10:23:16.030Z,70.5643
2023-04-07T10:24:16.569Z,70.3236
2023-04-07T10:25:17.115Z,70.2132
2023-04-07T10:26:17.650Z,71.0007
2023-04-07T10:27:18.176Z,71.5012
2023-04-07T10:28:18.746Z,71.1884
2023-04-07T10:29:19.312Z,70.1333
2023-04-07T10:30:19.850Z,69.4617
2023-04-07T10:31:20.474Z,69.9187
2023-04-07T10:32:21.012Z,69.8900
2023-04-07T10:33:21.508Z,69.5125
2023-04-07T10:34:22.092Z,70.1473
2023-04-07T10:35:22.672Z,69.2574
2023-04-07T10:36:23.207Z,67.8789
2023-04-07T10:37:23.813Z,68.7882
2023-04-07T10:38:24.372Z,70.3427
2023-04-07T10:39:24.903Z,71.1700
2023-04-07T10:40:25.391Z,72.0198
2023-04-07T10:41:25.918Z,72.4104
2023-04-07T10:42:26.451Z,72.1434
2023-04-07T10:43:26.999Z,72.1373
2023-04-07T10:44:27.513Z,72.2542
2023-04-07T10:45:28.085Z,72.0268
2023-04-07T10:46:28.644Z,71.8603
2023-04-07T10:47:29.198Z,71.5543
2023-04-07T10:48:29.732Z,72.0984
2023-04-07T10:49:30.289Z,72.5294
2023-04-07T10:50:30.869Z,72.6045
2023-04-07T10:51:31.401Z,72.7594
2023-04-07T10:52:31.989Z,73.3431
2023-04-07T10:53:32.529Z,74.0678
2023-04-07T10:54:33.106Z,73.9499
2023-04-07T10:55:33.632Z,73.2542
2023-04-07T10:56:34.201Z,72.4185
2023-04-07T10:57:34.740Z,73.1588
2023-04-07T10:58:35.299Z,73.5281
2023-04-07T10:59:35.865Z,74.1562
2023-04-07T11:00:36.432Z,73.7167
2023-04-07T11:01:37.149Z,73.6944
2023-04-07T11:02:37.936Z,73.5887
2023-04-07T11:03:39.038Z,73.8202
2023-04-07T11:04:40.086Z,74.7450
2023-04-07T11:05:40.740Z,74.8496
2023-04-07T11:06:41.279Z,75.2480
2023-04-07T11:07:41.896Z,76.0636
2023-04-07T11:08:42.425Z,76.6452
2023-04-07T11:09:42.952Z,77.5471
2023-04-07T11:10:43.494Z,77.6923
2023-04-07T11:11:44.029Z,78.5394
2023-04-07T11:12:44.633Z,79.1463
2023-04-07T11:13:45.178Z,79.2493
2023-04-07T11:14:45.704Z,80.0108
2023-04-07T11:15:46.321Z,80.1645
2023-04-07T11:16:46.925Z,80.4478
2023-04-07T11:17:47.608Z,81.3649
2023-04-07T11:18:48.325Z,81.3559
2023-04-07T11:19:49.013Z,81.3402
2023-04-07T11:20:49.674Z,81.2672
2023-04-07T11:21:50.269Z,82.0949
2023-04-07T11:22:50.929Z,82.4718
2023-04-07T11:23:51.729Z,82.7885
2023-04-07T11:24:52.402Z,82.5218
2023-04-07T11:25:53.030Z,82.3687
2023-04-07T11:26:53.655Z,82.8965
2023-04-07T11:27:54.299Z,83.3576
2023-04-07T11:28:54.927Z,84.1252
2023-04-07T11:29:55.540Z,84.5881
2023-04-07T11:30:56.164Z,84.7849
2023-04-07T11:31:56.767Z,85.0196
2023-04-07T11:32:57.414Z,85.5007
2023-04-07T11:33:58.035Z,85.3356
2023-04-07T11:34:58.693Z,85.6473
2023-04-07T11:35:59.372Z,86.0801
2023-04-07T11:36:59.967Z,86.1772
2023-04-07T11:38:00.602Z,86.3743
2023-04-07T11:39:01.258Z,87.2538
2023-04-07T11:40:01.868Z,87.9843
2023-04-07T11:41:02.496Z,88.2755
2023-04-07T11:42:03.176Z,87.7012
2023-04-07T11:43:03.813Z,87.3491
2023-04-07T11:44:04.449Z,87.4362
2023-04-07T11:45:05.999Z,87.4085
2023-04-07T11:46:05.892Z,87.1416
2023-04-07T11:47:06.592Z,87.3425
2023-04-07T11:48:07.237Z,87.2426
2023-04-07T11:49:07.820Z,87.0951
2023-04-07T11:50:08.506Z,87.1904
2023-04-07T11:51:09.129Z,87.7187
2023-04-07T11:52:09.778Z,87.4211
2023-04-07T11:53:10.373Z,87.2996
2023-04-07T11:54:11.133Z,86.8056
2023-04-07T11:55:11.733Z,87.1186
2023-04-07T11:56:12.378Z,87.0808
2023-04-07T11:57:13.208Z,87.1618
2023-04-07T11:58:13.969Z,86.3195
2023-04-07T11:59:14.578Z,86.7494
2023-04-07T12:00:15.273Z,86.6080
2023-04-07T12:01:15.964Z,86.4969
2023-04-07T12:02:16.628Z,86.4075
2023-04-07T12:03:17.434Z,86.2683
2023-04-07T12:04:18.286Z,86.8197
2023-04-07T12:05:19.241Z,87.1880
2023-04-07T12:06:19.950Z,87.2647
2023-04-07T12:07:20.573Z,87.3612
2023-04-07T12:08:21.252Z,87.4232
2023-04-07T12:09:21.876Z,88.0807
2023-04-07T12:10:22.558Z,88.2426
2023-04-07T12:11:23.185Z,87.8324
2023-04-07T12:12:23.852Z,88.3276